sensor_id;sensor_type;location;lat;lon;timestamp;pressure;altitude;pressure_sealevel;temperature;humidity
69624;BME280;56843;52.020;5.670;2023-04-19T00:01:08;102587.63;;;11.67;56.25
69624;BME280;56843;52.020;5.670;2023-04-19T00:02:40;102583.59;;;11.70;55.92
69624;BME280;56843;52.020;5.670;2023-04-19T00:04:11;102583.31;;;11.71;56.09
69624;BME280;56843;52.020;5.670;2023-04-19T00:05:42;102583.03;;;11.73;55.99
69624;BME280;56843;52.020;5.670;2023-04-19T00:07:12;102586.22;;;11.75;55.83
69624;BME280;56843;52.020;5.670;2023-04-19T00:08:43;102584.63;;;11.74;56.12
69624;BME280;56843;52.020;5.670;2023-04-19T00:10:13;102578.69;;;11.77;56.38
69624;BME280;56843;52.020;5.670;2023-04-19T00:11:44;102588.31;;;11.78;56.09
69624;BME280;56843;52.020;5.670;2023-04-19T00:13:14;102600.63;;;11.79;56.27
69624;BME280;56843;52.020;5.670;2023-04-19T00:14:45;102582.69;;;11.79;56.11
69624;BME280;56843;52.020;5.670;2023-04-19T00:16:16;102585.88;;;11.82;56.01
69624;BME280;56843;52.020;5.670;2023-04-19T00:17:46;102581.28;;;11.82;56.39
69624;BME280;56843;52.020;5.670;2023-04-19T00:19:17;102577.53;;;11.83;56.70
69624;BME280;56843;52.020;5.670;2023-04-19T00:20:47;102578.34;;;11.84;56.25
69624;BME280;56843;52.020;5.670;2023-04-19T00:22:17;102582.59;;;11.85;56.62
69624;BME280;56843;52.020;5.670;2023-04-19T00:23:48;102586.09;;;11.85;56.67
69624;BME280;56843;52.020;5.670;2023-04-19T00:25:18;102582.34;;;11.86;56.74
69624;BME280;56843;52.020;5.670;2023-04-19T00:26:49;102587.69;;;11.86;56.78
69624;BME280;56843;52.020;5.670;2023-04-19T00:28:20;102575.06;;;11.87;56.74
69624;BME280;56843;52.020;5.670;2023-04-19T00:29:52;102578.56;;;11.87;56.51
69624;BME280;56843;52.020;5.670;2023-04-19T00:31:22;102569.47;;;11.88;56.72
69624;BME280;56843;52.020;5.670;2023-04-19T00:32:53;102565.97;;;11.88;56.51
69624;BME280;56843;52.020;5.670;2023-04-19T00:34:23;102572.91;;;11.89;56.76
69624;BME280;56843;52.020;5.670;2023-04-19T00:35:54;102564.09;;;11.88;56.88
69624;BME280;56843;52.020;5.670;2023-04-19T00:37:24;102567.84;;;11.87;56.65
69624;BME280;56843;52.020;5.670;2023-04-19T00:38:55;102566.78;;;11.88;56.58
69624;BME280;56843;52.020;5.670;2023-04-19T00:40:25;102571.34;;;11.88;56.65
69624;BME280;56843;52.020;5.670;2023-04-19T00:41:57;102562.19;;;11.89;57.07
69624;BME280;56843;52.020;5.670;2023-04-19T00:43:27;102572.91;;;11.89;56.88
69624;BME280;56843;52.020;5.670;2023-04-19T00:44:57;102571.34;;;11.88;56.84
69624;BME280;56843;52.020;5.670;2023-04-19T00:46:28;102565.97;;;11.88;57.04
69624;BME280;56843;52.020;5.670;2023-04-19T00:47:59;102566.28;;;11.86;57.14
69624;BME280;56843;52.020;5.670;2023-04-19T00:49:30;102564.38;;;11.87;57.02
69624;BME280;56843;52.020;5.670;2023-04-19T00:51:01;102561.19;;;11.85;57.05
69624;BME280;56843;52.020;5.670;2023-04-19T00:52:32;102566.53;;;11.85;57.22
69624;BME280;56843;52.020;5.670;2023-04-19T00:54:03;102560.41;;;11.84;57.18
69624;BME280;56843;52.020;5.670;2023-04-19T00:55:34;102563.34;;;11.82;57.51
69624;BME280;56843;52.020;5.670;2023-04-19T00:57:04;102558.00;;;11.82;57.33
69624;BME280;56843;52.020;5.670;2023-04-19T00:58:37;102568.50;;;11.79;57.44
69624;BME280;56843;52.020;5.670;2023-04-19T01:00:08;102555.91;;;11.79;57.28
69624;BME280;56843;52.020;5.670;2023-04-19T01:03:40;102567.19;;;11.76;57.78
69624;BME280;56843;52.020;5.670;2023-04-19T01:05:11;102558.34;;;11.76;57.87
69624;BME280;56843;52.020;5.670;2023-04-19T01:06:43;102551.44;;;11.75;57.78
69624;BME280;56843;52.020;5.670;2023-04-19T01:08:14;102555.19;;;11.74;57.49
69624;BME280;56843;52.020;5.670;2023-04-19T01:09:45;102550.91;;;11.73;57.87
69624;BME280;56843;52.020;5.670;2023-04-19T01:11:15;102556.53;;;11.71;57.92
69624;BME280;56843;52.020;5.670;2023-04-19T01:12:47;102554.97;;;11.70;57.78
69624;BME280;56843;52.020;5.670;2023-04-19T01:14:18;102548.81;;;11.70;57.97
69624;BME280;56843;52.020;5.670;2023-04-19T01:15:50;102552.56;;;11.69;57.97
69624;BME280;56843;52.020;5.670;2023-04-19T01:17:21;102550.16;;;11.67;58.05
69624;BME280;56843;52.020;5.670;2023-04-19T01:18:52;102548.56;;;11.66;57.84
69624;BME280;56843;52.020;5.670;2023-04-19T01:20:23;102549.66;;;11.65;57.88
69624;BME280;56843;52.020;5.670;2023-04-19T01:21:54;102559.56;;;11.65;57.99
69624;BME280;56843;52.020;5.670;2023-04-19T01:23:27;102557.19;;;11.63;58.03
69624;BME280;56843;52.020;5.670;2023-04-19T01:24:59;102554.50;;;11.63;58.04
69624;BME280;56843;52.020;5.670;2023-04-19T01:26:30;102554.00;;;11.61;58.15
69624;BME280;56843;52.020;5.670;2023-04-19T01:28:00;102558.03;;;11.59;58.11
69624;BME280;56843;52.020;5.670;2023-04-19T01:29:31;102551.09;;;11.58;58.20
69624;BME280;56843;52.020;5.670;2023-04-19T01:31:01;102555.94;;;11.56;58.16
69624;BME280;56843;52.020;5.670;2023-04-19T01:32:32;102551.69;;;11.55;58.31
69624;BME280;56843;52.020;5.670;2023-04-19T01:34:02;102555.41;;;11.54;58.48
69624;BME280;56843;52.020;5.670;2023-04-19T01:35:34;102556.50;;;11.53;58.32
69624;BME280;56843;52.020;5.670;2023-04-19T01:37:04;102553.31;;;11.51;58.35
69624;BME280;56843;52.020;5.670;2023-04-19T01:38:35;102562.69;;;11.48;58.72
69624;BME280;56843;52.020;5.670;2023-04-19T01:40:06;102551.75;;;11.45;58.63
69624;BME280;56843;52.020;5.670;2023-04-19T01:41:37;102558.19;;;11.44;58.42
69624;BME280;56843;52.020;5.670;2023-04-19T01:43:07;102555.53;;;11.44;58.51
69624;BME280;56843;52.020;5.670;2023-04-19T01:44:38;102552.34;;;11.42;58.62
69624;BME280;56843;52.020;5.670;2023-04-19T01:46:08;102552.59;;;11.40;58.68
69624;BME280;56843;52.020;5.670;2023-04-19T01:47:41;102556.38;;;11.39;58.88
69624;BME280;56843;52.020;5.670;2023-04-19T01:49:12;102555.88;;;11.37;58.85
69624;BME280;56843;52.020;5.670;2023-04-19T01:50:42;102554.25;;;11.36;58.80
69624;BME280;56843;52.020;5.670;2023-04-19T01:52:14;102557.22;;;11.35;59.01
69624;BME280;56843;52.020;5.670;2023-04-19T01:53:44;102551.06;;;11.34;59.02
69624;BME280;56843;52.020;5.670;2023-04-19T01:55:15;102549.75;;;11.32;59.02
69624;BME280;56843;52.020;5.670;2023-04-19T01:56:45;102549.75;;;11.32;58.91
69624;BME280;56843;52.020;5.670;2023-04-19T01:58:16;102559.16;;;11.29;59.16
69624;BME280;56843;52.020;5.670;2023-04-19T01:59:47;102562.13;;;11.28;59.04
69624;BME280;56843;52.020;5.670;2023-04-19T02:01:19;102552.50;;;11.27;59.46
69624;BME280;56843;52.020;5.670;2023-04-19T02:02:49;102556.25;;;11.26;59.19
69624;BME280;56843;52.020;5.670;2023-04-19T02:04:20;102567.25;;;11.24;59.36
69624;BME280;56843;52.020;5.670;2023-04-19T02:05:53;102559.78;;;11.21;58.90
69624;BME280;56843;52.020;5.670;2023-04-19T02:07:25;102560.84;;;11.20;59.39
69624;BME280;56843;52.020;5.670;2023-04-19T02:08:56;102569.16;;;11.19;59.22
69624;BME280;56843;52.020;5.670;2023-04-19T02:10:26;102562.25;;;11.18;59.48
69624;BME280;56843;52.020;5.670;2023-04-19T02:11:57;102559.81;;;11.16;59.28
69624;BME280;56843;52.020;5.670;2023-04-19T02:13:27;102559.03;;;11.16;59.53
69624;BME280;56843;52.020;5.670;2023-04-19T02:14:59;102560.13;;;11.15;59.65
69624;BME280;56843;52.020;5.670;2023-04-19T02:16:33;102554.25;;;11.13;59.78
69624;BME280;56843;52.020;5.670;2023-04-19T02:18:04;102560.69;;;11.12;59.72
69624;BME280;56843;52.020;5.670;2023-04-19T02:19:36;102555.63;;;11.10;59.58
69624;BME280;56843;52.020;5.670;2023-04-19T02:21:08;102555.63;;;11.10;59.94
69624;BME280;56843;52.020;5.670;2023-04-19T02:22:38;102553.50;;;11.07;59.71
69624;BME280;56843;52.020;5.670;2023-04-19T02:24:09;102558.06;;;11.06;59.83
69624;BME280;56843;52.020;5.670;2023-04-19T02:25:40;102561.81;;;11.05;59.88
69624;BME280;56843;52.020;5.670;2023-04-19T02:27:10;102568.22;;;11.04;60.08
69624;BME280;56843;52.020;5.670;2023-04-19T02:28:41;102557.03;;;11.02;60.12
69624;BME280;56843;52.020;5.670;2023-04-19T02:30:11;102560.78;;;11.01;60.06
69624;BME280;56843;52.020;5.670;2023-04-19T02:31:42;102554.63;;;11.01;60.00
69624;BME280;56843;52.020;5.670;2023-04-19T02:33:15;102559.19;;;11.00;59.98
69624;BME280;56843;52.020;5.670;2023-04-19T02:34:46;102562.16;;;10.99;60.31
69624;BME280;56843;52.020;5.670;2023-04-19T02:36:17;102561.34;;;10.98;60.21
69624;BME280;56843;52.020;5.670;2023-04-19T02:37:47;102559.75;;;10.97;60.19
69624;BME280;56843;52.020;5.670;2023-04-19T02:39:18;102561.63;;;10.97;60.54
69624;BME280;56843;52.020;5.670;2023-04-19T02:40:48;102566.19;;;10.96;60.37
69624;BME280;56843;52.020;5.670;2023-04-19T02:42:19;102571.00;;;10.94;60.75
69624;BME280;56843;52.020;5.670;2023-04-19T02:43:49;102564.06;;;10.93;60.68
69624;BME280;56843;52.020;5.670;2023-04-19T02:45:20;102564.84;;;10.94;60.33
69624;BME280;56843;52.020;5.670;2023-04-19T02:46:51;102565.97;;;10.93;60.49
69624;BME280;56843;52.020;5.670;2023-04-19T02:48:21;102564.06;;;10.93;60.40
69624;BME280;56843;52.020;5.670;2023-04-19T02:49:52;102552.59;;;10.93;60.43
69624;BME280;56843;52.020;5.670;2023-04-19T02:51:23;102562.47;;;10.92;60.62
69624;BME280;56843;52.020;5.670;2023-04-19T02:52:54;102566.72;;;10.93;60.49
69624;BME280;56843;52.020;5.670;2023-04-19T02:54:26;102565.97;;;10.93;60.54
69624;BME280;56843;52.020;5.670;2023-04-19T02:55:57;102554.47;;;10.92;60.39
69624;BME280;56843;52.020;5.670;2023-04-19T02:57:27;102558.72;;;10.93;60.62
69624;BME280;56843;52.020;5.670;2023-04-19T02:59:02;102561.38;;;10.93;60.70
69624;BME280;56843;52.020;5.670;2023-04-19T03:00:33;102555.53;;;10.91;60.73
69624;BME280;56843;52.020;5.670;2023-04-19T03:02:10;102561.97;;;10.90;60.91
69624;BME280;56843;52.020;5.670;2023-04-19T03:03:41;102557.13;;;10.92;60.61
69624;BME280;56843;52.020;5.670;2023-04-19T03:05:11;102559.81;;;10.92;60.73
69624;BME280;56843;52.020;5.670;2023-04-19T03:06:42;102554.47;;;10.92;60.77
69624;BME280;56843;52.020;5.670;2023-04-19T03:08:14;102555.25;;;10.93;60.82
69624;BME280;56843;52.020;5.670;2023-04-19T03:09:45;102554.16;;;10.94;61.00
69624;BME280;56843;52.020;5.670;2023-04-19T03:11:16;102551.50;;;10.94;61.04
69624;BME280;56843;52.020;5.670;2023-04-19T03:12:46;102550.13;;;10.96;61.15
69624;BME280;56843;52.020;5.670;2023-04-19T03:14:17;102545.59;;;10.97;60.79
69624;BME280;56843;52.020;5.670;2023-04-19T03:15:49;102550.13;;;10.96;60.84
69624;BME280;56843;52.020;5.670;2023-04-19T03:17:23;102545.59;;;10.97;60.92
69624;BME280;56843;52.020;5.670;2023-04-19T03:18:54;102549.59;;;10.99;60.92
69624;BME280;56843;52.020;5.670;2023-04-19T03:20:28;102546.91;;;10.99;60.82
69624;BME280;56843;52.020;5.670;2023-04-19T03:22:00;102545.03;;;11.00;61.07
69624;BME280;56843;52.020;5.670;2023-04-19T03:23:31;102552.78;;;11.01;60.74
69624;BME280;56843;52.020;5.670;2023-04-19T03:25:04;102548.22;;;11.02;60.96
69624;BME280;56843;52.020;5.670;2023-04-19T03:26:34;102556.75;;;11.04;60.95
69624;BME280;56843;52.020;5.670;2023-04-19T03:28:06;102544.16;;;11.04;61.25
69624;BME280;56843;52.020;5.670;2023-04-19T03:30:15;102549.00;;;11.02;60.79
69624;BME280;56843;52.020;5.670;2023-04-19T03:31:48;102542.28;;;11.05;61.04
69624;BME280;56843;52.020;5.670;2023-04-19T03:33:18;102548.44;;;11.05;60.76
69624;BME280;56843;52.020;5.670;2023-04-19T03:34:49;102541.75;;;11.08;60.90
69624;BME280;56843;52.020;5.670;2023-04-19T03:36:20;102532.13;;;11.07;60.95
69624;BME280;56843;52.020;5.670;2023-04-19T03:37:51;102543.06;;;11.11;60.85
69624;BME280;56843;52.020;5.670;2023-04-19T03:39:21;102546.53;;;11.11;60.63
69624;BME280;56843;52.020;5.670;2023-04-19T03:40:55;102533.16;;;11.11;60.84
69624;BME280;56843;52.020;5.670;2023-04-19T03:42:27;102534.44;;;11.14;60.91
69624;BME280;56843;52.020;5.670;2023-04-19T03:44:01;102541.69;;;11.13;60.64
69624;BME280;56843;52.020;5.670;2023-04-19T03:45:32;102542.97;;;11.16;60.87
69624;BME280;56843;52.020;5.670;2023-04-19T03:47:02;102541.09;;;11.16;61.00
69624;BME280;56843;52.020;5.670;2023-04-19T03:48:37;102542.97;;;11.16;60.55
69624;BME280;56843;52.020;5.670;2023-04-19T03:50:08;102548.88;;;11.18;60.77
69624;BME280;56843;52.020;5.670;2023-04-19T03:51:40;102545.38;;;11.17;60.78
69624;BME280;56843;52.020;5.670;2023-04-19T03:53:11;102545.91;;;11.19;60.45
69624;BME280;56843;52.020;5.670;2023-04-19T03:54:41;102542.44;;;11.19;60.52
69624;BME280;56843;52.020;5.670;2023-04-19T03:56:20;102539.75;;;11.19;60.60
69624;BME280;56843;52.020;5.670;2023-04-19T03:57:51;102545.09;;;11.19;60.59
69624;BME280;56843;52.020;5.670;2023-04-19T03:59:29;102547.78;;;11.19;60.50
69624;BME280;56843;52.020;5.670;2023-04-19T04:01:02;102545.09;;;11.19;60.34
69624;BME280;56843;52.020;5.670;2023-04-19T04:02:36;102545.91;;;11.19;60.36
69624;BME280;56843;52.020;5.670;2023-04-19T04:04:07;102546.97;;;11.18;60.41
69624;BME280;56843;52.020;5.670;2023-04-19T04:05:38;102546.19;;;11.18;60.24
69624;BME280;56843;52.020;5.670;2023-04-19T04:07:09;102538.16;;;11.18;60.34
69624;BME280;56843;52.020;5.670;2023-04-19T04:08:39;102541.63;;;11.18;60.50
69624;BME280;56843;52.020;5.670;2023-04-19T04:10:10;102546.19;;;11.18;60.28
69624;BME280;56843;52.020;5.670;2023-04-19T04:11:45;102536.28;;;11.18;60.48
69624;BME280;56843;52.020;5.670;2023-04-19T04:13:17;102540.84;;;11.18;60.17
69624;BME280;56843;52.020;5.670;2023-04-19T04:15:06;102540.59;;;11.14;60.44
69624;BME280;56843;52.020;5.670;2023-04-19T04:16:40;102540.88;;;11.13;60.08
69624;BME280;56843;52.020;5.670;2023-04-19T04:18:11;102543.56;;;11.13;60.43
69624;BME280;56843;52.020;5.670;2023-04-19T04:19:42;102541.97;;;11.12;60.24
69624;BME280;56843;52.020;5.670;2023-04-19T04:21:12;102536.59;;;11.12;60.58
69624;BME280;56843;52.020;5.670;2023-04-19T04:22:45;102535.84;;;11.11;60.15
69624;BME280;56843;52.020;5.670;2023-04-19T04:24:18;102539.88;;;11.08;60.37
69624;BME280;56843;52.020;5.670;2023-04-19T04:26:06;102536.69;;;11.06;59.96
69624;BME280;56843;52.020;5.670;2023-04-19T04:27:59;102536.16;;;11.04;60.37
69624;BME280;56843;52.020;5.670;2023-04-19T04:29:31;102533.47;;;11.04;60.29
69624;BME280;56843;52.020;5.670;2023-04-19T04:31:03;102533.47;;;11.04;60.07
69624;BME280;56843;52.020;5.670;2023-04-19T04:32:37;102533.75;;;11.03;60.33
69624;BME280;56843;52.020;5.670;2023-04-19T04:34:08;102539.41;;;11.01;59.91
69624;BME280;56843;52.020;5.670;2023-04-19T04:35:42;102538.31;;;11.02;59.69
69624;BME280;56843;52.020;5.670;2023-04-19T04:37:17;102529.78;;;11.00;59.99
69624;BME280;56843;52.020;5.670;2023-04-19T04:38:48;102537.28;;;10.98;59.84
69624;BME280;56843;52.020;5.670;2023-04-19T04:40:18;102539.16;;;10.98;59.79
69624;BME280;56843;52.020;5.670;2023-04-19T04:41:50;102528.25;;;10.94;60.24
69624;BME280;56843;52.020;5.670;2023-04-19T04:43:24;102534.38;;;10.95;59.79
69624;BME280;56843;52.020;5.670;2023-04-19T04:44:59;102534.66;;;10.93;60.08
69624;BME280;56843;52.020;5.670;2023-04-19T04:46:30;102530.69;;;10.91;59.53
69624;BME280;56843;52.020;5.670;2023-04-19T04:48:01;102537.91;;;10.90;60.00
69624;BME280;56843;52.020;5.670;2023-04-19T04:49:31;102533.38;;;10.91;60.03
69624;BME280;56843;52.020;5.670;2023-04-19T04:51:02;102534.44;;;10.90;59.67
69624;BME280;56843;52.020;5.670;2023-04-19T04:52:33;102530.19;;;10.89;59.86
69624;BME280;56843;52.020;5.670;2023-04-19T04:54:11;102531.25;;;10.88;60.19
69624;BME280;56843;52.020;5.670;2023-04-19T04:55:42;102536.59;;;10.88;60.00
69624;BME280;56843;52.020;5.670;2023-04-19T04:57:13;102534.22;;;10.86;59.95
69624;BME280;56843;52.020;5.670;2023-04-19T04:58:43;102533.69;;;10.84;59.56
69624;BME280;56843;52.020;5.670;2023-04-19T05:00:18;102542.25;;;10.81;59.69
69624;BME280;56843;52.020;5.670;2023-04-19T05:02:03;102542.31;;;10.76;59.35
69624;BME280;56843;52.020;5.670;2023-04-19T05:03:34;102547.13;;;10.74;59.65
69624;BME280;56843;52.020;5.670;2023-04-19T05:05:07;102533.25;;;10.72;59.70
69624;BME280;56843;52.020;5.670;2023-04-19T05:06:40;102547.97;;;10.70;59.81
69624;BME280;56843;52.020;5.670;2023-04-19T05:08:12;102542.13;;;10.68;59.57
69624;BME280;56843;52.020;5.670;2023-04-19T05:09:42;102542.72;;;10.60;59.83
69624;BME280;56843;52.020;5.670;2023-04-19T05:11:15;102542.22;;;10.58;60.45
69624;BME280;56843;52.020;5.670;2023-04-19T05:12:47;102533.91;;;10.59;60.47
69624;BME280;56843;52.020;5.670;2023-04-19T05:14:17;102546.66;;;10.67;60.66
69624;BME280;56843;52.020;5.670;2023-04-19T05:15:48;102555.16;;;10.74;60.50
69624;BME280;56843;52.020;5.670;2023-04-19T05:17:18;102546.50;;;10.82;60.65
69624;BME280;56843;52.020;5.670;2023-04-19T05:18:49;102544.84;;;10.91;60.76
69624;BME280;56843;52.020;5.670;2023-04-19T05:20:20;102552.78;;;11.01;60.67
69624;BME280;56843;52.020;5.670;2023-04-19T05:21:53;102545.72;;;11.11;60.45
69624;BME280;56843;52.020;5.670;2023-04-19T05:23:24;102550.16;;;11.20;60.26
69624;BME280;56843;52.020;5.670;2023-04-19T05:24:56;102547.69;;;11.29;60.21
69624;BME280;56843;52.020;5.670;2023-04-19T05:26:27;102551.28;;;11.38;60.56
69624;BME280;56843;52.020;5.670;2023-04-19T05:27:58;102543.47;;;11.46;60.06
69624;BME280;56843;52.020;5.670;2023-04-19T05:29:30;102543.38;;;11.51;60.24
69624;BME280;56843;52.020;5.670;2023-04-19T05:31:01;102561.22;;;11.61;60.04
69624;BME280;56843;52.020;5.670;2023-04-19T05:32:37;102554.72;;;11.67;60.17
69624;BME280;56843;52.020;5.670;2023-04-19T05:34:08;102553.31;;;11.74;60.25
69624;BME280;56843;52.020;5.670;2023-04-19T05:35:39;102550.28;;;11.81;59.77
69624;BME280;56843;52.020;5.670;2023-04-19T05:37:10;102547.81;;;11.85;60.05
69624;BME280;56843;52.020;5.670;2023-04-19T05:38:40;102553.31;;;11.93;59.69
69624;BME280;56843;52.020;5.670;2023-04-19T05:40:11;102553.25;;;11.98;60.01
69624;BME280;56843;52.020;5.670;2023-04-19T05:41:42;102544.84;;;12.05;59.58
69624;BME280;56843;52.020;5.670;2023-04-19T05:43:13;102551.72;;;12.11;59.50
69624;BME280;56843;52.020;5.670;2023-04-19T05:44:44;102551.94;;;12.14;59.74
69624;BME280;56843;52.020;5.670;2023-04-19T05:46:15;102544.91;;;12.18;59.61
69624;BME280;56843;52.020;5.670;2023-04-19T05:47:45;102553.69;;;12.24;59.53
69624;BME280;56843;52.020;5.670;2023-04-19T05:49:34;102552.00;;;12.28;59.98
69624;BME280;56843;52.020;5.670;2023-04-19T05:51:22;102556.50;;;12.32;59.44
69624;BME280;56843;52.020;5.670;2023-04-19T05:53:00;102554.53;;;12.38;59.15
69624;BME280;56843;52.020;5.670;2023-04-19T05:54:30;102546.41;;;12.43;59.38
69624;BME280;56843;52.020;5.670;2023-04-19T05:56:05;102555.47;;;12.47;59.11
69624;BME280;56843;52.020;5.670;2023-04-19T05:57:36;102556.69;;;12.54;59.17
69624;BME280;56843;52.020;5.670;2023-04-19T05:59:06;102549.16;;;12.57;59.01
69624;BME280;56843;52.020;5.670;2023-04-19T06:00:37;102557.09;;;12.62;59.09
69624;BME280;56843;52.020;5.670;2023-04-19T06:02:13;102561.88;;;12.65;59.19
69624;BME280;56843;52.020;5.670;2023-04-19T06:03:44;102542.53;;;12.68;58.75
69624;BME280;56843;52.020;5.670;2023-04-19T06:05:15;102549.69;;;12.72;59.11
69624;BME280;56843;52.020;5.670;2023-04-19T06:06:45;102552.38;;;12.72;58.93
69624;BME280;56843;52.020;5.670;2023-04-19T06:08:18;102546.13;;;12.77;58.57
69624;BME280;56843;52.020;5.670;2023-04-19T06:09:49;102550.91;;;12.80;58.49
69624;BME280;56843;52.020;5.670;2023-04-19T06:11:19;102550.34;;;12.83;58.75
69624;BME280;56843;52.020;5.670;2023-04-19T06:12:50;102552.44;;;12.86;58.58
69624;BME280;56843;52.020;5.670;2023-04-19T06:14:21;102556.13;;;12.90;58.41
69624;BME280;56843;52.020;5.670;2023-04-19T06:15:52;102563.56;;;12.93;58.80
69624;BME280;56843;52.020;5.670;2023-04-19T06:17:22;102548.75;;;12.95;58.48
69624;BME280;56843;52.020;5.670;2023-04-19T06:18:54;102556.22;;;12.98;58.16
69624;BME280;56843;52.020;5.670;2023-04-19T06:20:25;102553.75;;;13.02;58.51
69624;BME280;56843;52.020;5.670;2023-04-19T06:21:55;102556.91;;;13.04;58.08
69624;BME280;56843;52.020;5.670;2023-04-19T06:23:25;102550.97;;;13.07;58.28
69624;BME280;56843;52.020;5.670;2023-04-19T06:24:56;102559.50;;;13.09;58.40
69624;BME280;56843;52.020;5.670;2023-04-19T06:26:27;102568.56;;;13.13;58.21
69624;BME280;56843;52.020;5.670;2023-04-19T06:27:57;102559.44;;;13.14;58.12
69624;BME280;56843;52.020;5.670;2023-04-19T06:29:28;102561.50;;;13.17;57.74
69624;BME280;56843;52.020;5.670;2023-04-19T06:30:58;102552.88;;;13.20;57.75
69624;BME280;56843;52.020;5.670;2023-04-19T06:32:28;102561.41;;;13.22;57.87
69624;BME280;56843;52.020;5.670;2023-04-19T06:33:59;102561.41;;;13.22;57.83
69624;BME280;56843;52.020;5.670;2023-04-19T06:35:30;102568.25;;;13.28;57.85
69624;BME280;56843;52.020;5.670;2023-04-19T06:37:01;102558.06;;;13.30;57.31
69624;BME280;56843;52.020;5.670;2023-04-19T06:38:31;102566.28;;;13.34;57.36
69624;BME280;56843;52.020;5.670;2023-04-19T06:40:02;102565.19;;;13.35;57.26
69624;BME280;56843;52.020;5.670;2023-04-19T06:41:34;102568.41;;;13.37;56.94
69624;BME280;56843;52.020;5.670;2023-04-19T06:43:04;102565.09;;;13.40;57.01
69624;BME280;56843;52.020;5.670;2023-04-19T06:44:35;102572.88;;;13.41;56.92
69624;BME280;56843;52.020;5.670;2023-04-19T06:46:05;102566.09;;;13.44;56.74
69624;BME280;56843;52.020;5.670;2023-04-19T06:47:36;102573.06;;;13.45;56.63
69624;BME280;56843;52.020;5.670;2023-04-19T06:49:06;102569.47;;;13.49;56.65
69624;BME280;56843;52.020;5.670;2023-04-19T06:50:37;102572.66;;;13.51;56.05
69624;BME280;56843;52.020;5.670;2023-04-19T06:52:07;102582.00;;;13.54;55.98
69624;BME280;56843;52.020;5.670;2023-04-19T06:53:38;102580.63;;;13.56;55.89
69624;BME280;56843;52.020;5.670;2023-04-19T06:55:09;102568.50;;;13.59;55.57
69624;BME280;56843;52.020;5.670;2023-04-19T06:56:47;102579.41;;;13.62;55.46
69624;BME280;56843;52.020;5.670;2023-04-19T06:58:17;102571.34;;;13.62;55.45
69624;BME280;56843;52.020;5.670;2023-04-19T06:59:48;102569.97;;;13.65;55.41
69624;BME280;56843;52.020;5.670;2023-04-19T07:01:18;102570.47;;;13.67;55.35
69624;BME280;56843;52.020;5.670;2023-04-19T07:02:49;102566.16;;;13.66;54.59
69624;BME280;56843;52.020;5.670;2023-04-19T07:04:20;102569.88;;;13.70;54.58
69624;BME280;56843;52.020;5.670;2023-04-19T07:05:50;102570.06;;;13.73;54.42
69624;BME280;56843;52.020;5.670;2023-04-19T07:07:25;102568.66;;;13.76;54.29
69624;BME280;56843;52.020;5.670;2023-04-19T07:08:56;102571.84;;;13.78;54.11
69624;BME280;56843;52.020;5.670;2023-04-19T07:10:26;102569.34;;;13.81;54.06
69624;BME280;56843;52.020;5.670;2023-04-19T07:11:56;102579.47;;;13.84;53.60
69624;BME280;56843;52.020;5.670;2023-04-19T07:13:27;102575.72;;;13.85;53.65
69624;BME280;56843;52.020;5.670;2023-04-19T07:14:57;102569.72;;;13.88;53.80
69624;BME280;56843;52.020;5.670;2023-04-19T07:16:28;102578.28;;;13.90;53.36
69624;BME280;56843;52.020;5.670;2023-04-19T07:17:58;102569.13;;;13.91;53.50
69624;BME280;56843;52.020;5.670;2023-04-19T07:19:29;102585.75;;;13.93;53.39
69624;BME280;56843;52.020;5.670;2023-04-19T07:21:00;102580.09;;;13.95;53.14
69624;BME280;56843;52.020;5.670;2023-04-19T07:22:31;102567.16;;;13.97;52.73
69624;BME280;56843;52.020;5.670;2023-04-19T07:24:02;102574.91;;;13.98;52.72
69624;BME280;56843;52.020;5.670;2023-04-19T07:25:32;102568.13;;;14.01;52.55
69624;BME280;56843;52.020;5.670;2023-04-19T07:27:03;102575.09;;;14.02;52.58
69624;BME280;56843;52.020;5.670;2023-04-19T07:28:33;102576.38;;;14.05;52.43
69624;BME280;56843;52.020;5.670;2023-04-19T07:30:05;102578.75;;;14.06;52.06
69624;BME280;56843;52.020;5.670;2023-04-19T07:31:36;102583.06;;;14.07;52.21
69624;BME280;56843;52.020;5.670;2023-04-19T07:33:06;102562.84;;;14.10;52.00
69624;BME280;56843;52.020;5.670;2023-04-19T07:34:37;102561.75;;;14.11;51.74
69624;BME280;56843;52.020;5.670;2023-04-19T07:36:10;102567.59;;;14.13;51.59
69624;BME280;56843;52.020;5.670;2023-04-19T07:37:40;102567.31;;;14.14;51.53
69624;BME280;56843;52.020;5.670;2023-04-19T07:39:11;102566.50;;;14.14;51.55
69624;BME280;56843;52.020;5.670;2023-04-19T07:40:42;102570.50;;;14.16;51.55
69624;BME280;56843;52.020;5.670;2023-04-19T07:42:12;102567.81;;;14.16;51.52
69624;BME280;56843;52.020;5.670;2023-04-19T07:43:43;102570.19;;;14.18;51.38
69624;BME280;56843;52.020;5.670;2023-04-19T07:45:13;102567.19;;;14.19;51.40
69624;BME280;56843;52.020;5.670;2023-04-19T07:46:44;102579.22;;;14.22;51.23
69624;BME280;56843;52.020;5.670;2023-04-19T07:48:14;102578.91;;;14.23;51.08
69624;BME280;56843;52.020;5.670;2023-04-19T07:49:45;102578.63;;;14.25;51.14
69624;BME280;56843;52.020;5.670;2023-04-19T07:51:16;102572.94;;;14.26;50.94
69624;BME280;56843;52.020;5.670;2023-04-19T07:52:46;102580.69;;;14.28;50.81
69624;BME280;56843;52.020;5.670;2023-04-19T07:54:17;102572.34;;;14.29;50.55
69624;BME280;56843;52.020;5.670;2023-04-19T07:55:50;102579.78;;;14.32;50.66
69624;BME280;56843;52.020;5.670;2023-04-19T07:57:20;102567.13;;;14.33;50.37
69624;BME280;56843;52.020;5.670;2023-04-19T07:58:51;102567.63;;;14.35;50.32
69624;BME280;56843;52.020;5.670;2023-04-19T08:00:22;102571.13;;;14.35;50.22
69624;BME280;56843;52.020;5.670;2023-04-19T08:01:52;102565.75;;;14.35;50.25